Donnington, United Kingdom
Current Conditions -  °F | °C
As of 12:50 PM on Thursday 30 Oct 2014 (Local Time) from EGVN Reporting Station
Broken Clouds Broken Clouds  
Wind Chill: 17°   Ceiling: 3400
Heat Index: 17°   Visibility: 6mi
Dew Point: 14°   Wind: 9mph
Humidity: 82%   Direction: 200°SSW
Pressure: 30.06"   Gusts: NA
Location:  51.95°N, 1.72°W
Report Text: EGVN 301250Z 20008KT 9999 FEW012 SCT022 BKN034 17/14 Q1018 WHT BECMG FEW022 BLU
Loading
Personal Weather Stations






























Interactive Weather Map
Tropical Storm Tracking
New forecast layout! Learn more

10-Day Weather Forecast

Advertisements
Track Severe Weather on mobile